sensor_id;sensor_type;location;lat;lon;timestamp;P1;durP1;ratioP1;P2;durP2;ratioP2
3189;SDS011;1606;51.946;10.558;2024-03-22T00:02:08;30.50;;;20.13;;
3189;SDS011;1606;51.946;10.558;2024-03-22T00:04:35;32.70;;;21.27;;
3189;SDS011;1606;51.946;10.558;2024-03-22T00:07:01;31.30;;;20.23;;
3189;SDS011;1606;51.946;10.558;2024-03-22T00:09:29;29.07;;;20.77;;
3189;SDS011;1606;51.946;10.558;2024-03-22T00:11:55;28.87;;;20.40;;
3189;SDS011;1606;51.946;10.558;2024-03-22T00:14:22;30.60;;;22.13;;
3189;SDS011;1606;51.946;10.558;2024-03-22T00:16:48;30.50;;;21.00;;
3189;SDS011;1606;51.946;10.558;2024-03-22T00:19:16;28.60;;;21.07;;
3189;SDS011;1606;51.946;10.558;2024-03-22T00:21:42;31.00;;;19.90;;
3189;SDS011;1606;51.946;10.558;2024-03-22T00:24:09;33.63;;;21.07;;
3189;SDS011;1606;51.946;10.558;2024-03-22T00:26:35;30.17;;;22.47;;
3189;SDS011;1606;51.946;10.558;2024-03-22T00:29:02;34.90;;;23.00;;
3189;SDS011;1606;51.946;10.558;2024-03-22T00:31:28;33.87;;;23.80;;
3189;SDS011;1606;51.946;10.558;2024-03-22T00:33:55;33.87;;;23.17;;
3189;SDS011;1606;51.946;10.558;2024-03-22T00:36:23;39.20;;;26.07;;
3189;SDS011;1606;51.946;10.558;2024-03-22T00:38:50;35.60;;;25.60;;
3189;SDS011;1606;51.946;10.558;2024-03-22T00:41:16;34.00;;;24.30;;
3189;SDS011;1606;51.946;10.558;2024-03-22T00:43:43;40.57;;;28.17;;
3189;SDS011;1606;51.946;10.558;2024-03-22T00:46:09;39.50;;;27.23;;
3189;SDS011;1606;51.946;10.558;2024-03-22T00:48:35;38.77;;;27.50;;
3189;SDS011;1606;51.946;10.558;2024-03-22T00:51:02;34.30;;;25.17;;
3189;SDS011;1606;51.946;10.558;2024-03-22T00:53:30;35.17;;;23.97;;
3189;SDS011;1606;51.946;10.558;2024-03-22T00:55:56;39.50;;;26.50;;
3189;SDS011;1606;51.946;10.558;2024-03-22T00:58:25;37.73;;;26.20;;
3189;SDS011;1606;51.946;10.558;2024-03-22T01:00:52;36.47;;;26.00;;
3189;SDS011;1606;51.946;10.558;2024-03-22T01:03:19;34.90;;;24.90;;
3189;SDS011;1606;51.946;10.558;2024-03-22T01:05:44;34.53;;;24.10;;
3189;SDS011;1606;51.946;10.558;2024-03-22T01:08:12;36.73;;;25.30;;
3189;SDS011;1606;51.946;10.558;2024-03-22T01:10:39;33.53;;;24.10;;
3189;SDS011;1606;51.946;10.558;2024-03-22T01:13:06;36.40;;;26.50;;
3189;SDS011;1606;51.946;10.558;2024-03-22T01:15:32;37.00;;;24.30;;
3189;SDS011;1606;51.946;10.558;2024-03-22T01:17:59;35.87;;;23.50;;
3189;SDS011;1606;51.946;10.558;2024-03-22T01:20:25;31.70;;;22.23;;
3189;SDS011;1606;51.946;10.558;2024-03-22T01:22:52;35.03;;;25.27;;
3189;SDS011;1606;51.946;10.558;2024-03-22T01:25:18;33.90;;;23.83;;
3189;SDS011;1606;51.946;10.558;2024-03-22T01:27:46;36.63;;;25.53;;
3189;SDS011;1606;51.946;10.558;2024-03-22T01:30:12;33.20;;;23.90;;
3189;SDS011;1606;51.946;10.558;2024-03-22T01:32:39;33.70;;;24.40;;
3189;SDS011;1606;51.946;10.558;2024-03-22T01:35:05;33.90;;;24.53;;
3189;SDS011;1606;51.946;10.558;2024-03-22T01:37:33;35.13;;;22.30;;
3189;SDS011;1606;51.946;10.558;2024-03-22T01:39:59;30.57;;;23.00;;
3189;SDS011;1606;51.946;10.558;2024-03-22T01:42:25;36.93;;;24.57;;
3189;SDS011;1606;51.946;10.558;2024-03-22T01:44:53;36.50;;;25.70;;
3189;SDS011;1606;51.946;10.558;2024-03-22T01:47:20;33.70;;;23.67;;
3189;SDS011;1606;51.946;10.558;2024-03-22T01:49:46;36.50;;;24.60;;
3189;SDS011;1606;51.946;10.558;2024-03-22T01:52:14;35.97;;;25.27;;
3189;SDS011;1606;51.946;10.558;2024-03-22T01:54:40;35.13;;;25.23;;
3189;SDS011;1606;51.946;10.558;2024-03-22T01:57:08;35.73;;;23.30;;
3189;SDS011;1606;51.946;10.558;2024-03-22T01:59:34;36.90;;;24.40;;
3189;SDS011;1606;51.946;10.558;2024-03-22T02:02:02;35.80;;;24.57;;
3189;SDS011;1606;51.946;10.558;2024-03-22T02:04:28;35.60;;;25.30;;
3189;SDS011;1606;51.946;10.558;2024-03-22T02:06:55;37.40;;;24.20;;
3189;SDS011;1606;51.946;10.558;2024-03-22T02:09:21;37.47;;;26.00;;
3189;SDS011;1606;51.946;10.558;2024-03-22T02:11:48;35.63;;;24.43;;
3189;SDS011;1606;51.946;10.558;2024-03-22T02:14:15;38.30;;;26.50;;
3189;SDS011;1606;51.946;10.558;2024-03-22T02:16:42;39.90;;;26.17;;
3189;SDS011;1606;51.946;10.558;2024-03-22T02:19:09;37.27;;;26.03;;
3189;SDS011;1606;51.946;10.558;2024-03-22T02:21:36;34.90;;;26.60;;
3189;SDS011;1606;51.946;10.558;2024-03-22T02:24:03;33.70;;;25.27;;
3189;SDS011;1606;51.946;10.558;2024-03-22T02:26:31;34.73;;;24.43;;
3189;SDS011;1606;51.946;10.558;2024-03-22T02:28:57;36.70;;;27.60;;
3189;SDS011;1606;51.946;10.558;2024-03-22T02:31:23;31.83;;;22.50;;
3189;SDS011;1606;51.946;10.558;2024-03-22T02:33:50;33.97;;;24.93;;
3189;SDS011;1606;51.946;10.558;2024-03-22T02:36:18;32.67;;;25.00;;
3189;SDS011;1606;51.946;10.558;2024-03-22T02:38:43;34.13;;;25.00;;
3189;SDS011;1606;51.946;10.558;2024-03-22T02:41:12;38.00;;;26.53;;
3189;SDS011;1606;51.946;10.558;2024-03-22T02:43:38;40.27;;;25.10;;
3189;SDS011;1606;51.946;10.558;2024-03-22T02:46:05;32.33;;;23.00;;
3189;SDS011;1606;51.946;10.558;2024-03-22T02:48:31;33.50;;;24.50;;
3189;SDS011;1606;51.946;10.558;2024-03-22T02:50:58;32.88;;;25.25;;
3189;SDS011;1606;51.946;10.558;2024-03-22T02:53:24;33.50;;;23.60;;
3189;SDS011;1606;51.946;10.558;2024-03-22T02:55:51;29.97;;;21.83;;
3189;SDS011;1606;51.946;10.558;2024-03-22T02:58:19;30.07;;;21.33;;
3189;SDS011;1606;51.946;10.558;2024-03-22T03:00:46;28.00;;;19.53;;
3189;SDS011;1606;51.946;10.558;2024-03-22T03:03:12;31.20;;;23.27;;
3189;SDS011;1606;51.946;10.558;2024-03-22T03:05:39;32.87;;;21.67;;
3189;SDS011;1606;51.946;10.558;2024-03-22T03:08:06;29.10;;;21.40;;
3189;SDS011;1606;51.946;10.558;2024-03-22T03:10:34;36.30;;;21.20;;
3189;SDS011;1606;51.946;10.558;2024-03-22T03:13:01;28.77;;;20.23;;
3189;SDS011;1606;51.946;10.558;2024-03-22T03:15:29;29.30;;;20.10;;
3189;SDS011;1606;51.946;10.558;2024-03-22T03:17:55;31.47;;;20.53;;
3189;SDS011;1606;51.946;10.558;2024-03-22T03:20:22;30.93;;;20.77;;
3189;SDS011;1606;51.946;10.558;2024-03-22T03:22:48;28.70;;;20.40;;
3189;SDS011;1606;51.946;10.558;2024-03-22T03:25:15;25.77;;;18.17;;
3189;SDS011;1606;51.946;10.558;2024-03-22T03:27:41;28.70;;;19.77;;
3189;SDS011;1606;51.946;10.558;2024-03-22T03:30:08;26.30;;;18.83;;
3189;SDS011;1606;51.946;10.558;2024-03-22T03:32:35;27.73;;;20.80;;
3189;SDS011;1606;51.946;10.558;2024-03-22T03:35:02;26.57;;;18.97;;
3189;SDS011;1606;51.946;10.558;2024-03-22T03:37:30;27.97;;;18.90;;
3189;SDS011;1606;51.946;10.558;2024-03-22T03:39:57;30.93;;;19.90;;
3189;SDS011;1606;51.946;10.558;2024-03-22T03:42:23;27.60;;;19.77;;
3189;SDS011;1606;51.946;10.558;2024-03-22T03:44:50;29.37;;;20.57;;
3189;SDS011;1606;51.946;10.558;2024-03-22T03:47:16;28.60;;;19.13;;
3189;SDS011;1606;51.946;10.558;2024-03-22T03:49:46;33.20;;;19.43;;
3189;SDS011;1606;51.946;10.558;2024-03-22T03:52:11;29.23;;;20.10;;
3189;SDS011;1606;51.946;10.558;2024-03-22T03:54:39;28.23;;;19.67;;
3189;SDS011;1606;51.946;10.558;2024-03-22T03:57:04;29.10;;;20.03;;
3189;SDS011;1606;51.946;10.558;2024-03-22T03:59:31;30.03;;;19.47;;
3189;SDS011;1606;51.946;10.558;2024-03-22T04:01:57;33.70;;;21.17;;
3189;SDS011;1606;51.946;10.558;2024-03-22T04:04:24;29.97;;;19.60;;
3189;SDS011;1606;51.946;10.558;2024-03-22T04:06:51;25.90;;;19.10;;
3189;SDS011;1606;51.946;10.558;2024-03-22T04:09:18;30.47;;;21.60;;
3189;SDS011;1606;51.946;10.558;2024-03-22T04:11:44;27.67;;;19.50;;
3189;SDS011;1606;51.946;10.558;2024-03-22T04:14:12;30.80;;;20.37;;
3189;SDS011;1606;51.946;10.558;2024-03-22T04:16:39;29.60;;;18.77;;
3189;SDS011;1606;51.946;10.558;2024-03-22T04:19:05;27.90;;;18.17;;
3189;SDS011;1606;51.946;10.558;2024-03-22T04:21:31;26.80;;;18.77;;
3189;SDS011;1606;51.946;10.558;2024-03-22T04:23:59;30.63;;;20.93;;
3189;SDS011;1606;51.946;10.558;2024-03-22T04:26:25;30.40;;;20.30;;
3189;SDS011;1606;51.946;10.558;2024-03-22T04:28:52;35.17;;;21.43;;
3189;SDS011;1606;51.946;10.558;2024-03-22T04:31:18;28.40;;;19.97;;
3189;SDS011;1606;51.946;10.558;2024-03-22T04:33:45;32.13;;;19.47;;
3189;SDS011;1606;51.946;10.558;2024-03-22T04:36:11;32.60;;;19.93;;
3189;SDS011;1606;51.946;10.558;2024-03-22T04:38:38;27.77;;;19.47;;
3189;SDS011;1606;51.946;10.558;2024-03-22T04:41:06;29.80;;;20.30;;
3189;SDS011;1606;51.946;10.558;2024-03-22T04:43:33;30.73;;;19.87;;
3189;SDS011;1606;51.946;10.558;2024-03-22T04:45:59;30.77;;;19.57;;
3189;SDS011;1606;51.946;10.558;2024-03-22T04:48:25;31.43;;;20.03;;
3189;SDS011;1606;51.946;10.558;2024-03-22T04:50:52;33.47;;;20.60;;
3189;SDS011;1606;51.946;10.558;2024-03-22T04:53:20;30.50;;;22.00;;
3189;SDS011;1606;51.946;10.558;2024-03-22T04:55:46;30.90;;;20.90;;
3189;SDS011;1606;51.946;10.558;2024-03-22T04:58:15;36.20;;;22.37;;
3189;SDS011;1606;51.946;10.558;2024-03-22T05:00:43;33.50;;;21.87;;
3189;SDS011;1606;51.946;10.558;2024-03-22T05:03:10;39.67;;;24.20;;
3189;SDS011;1606;51.946;10.558;2024-03-22T05:05:37;33.83;;;20.90;;
3189;SDS011;1606;51.946;10.558;2024-03-22T05:08:04;37.80;;;20.77;;
3189;SDS011;1606;51.946;10.558;2024-03-22T05:10:30;33.10;;;20.50;;
3189;SDS011;1606;51.946;10.558;2024-03-22T05:12:57;34.83;;;22.20;;
3189;SDS011;1606;51.946;10.558;2024-03-22T05:15:25;34.67;;;21.40;;
3189;SDS011;1606;51.946;10.558;2024-03-22T05:17:52;30.43;;;21.00;;
3189;SDS011;1606;51.946;10.558;2024-03-22T05:20:18;30.20;;;19.03;;
3189;SDS011;1606;51.946;10.558;2024-03-22T05:25:12;38.13;;;21.37;;
3189;SDS011;1606;51.946;10.558;2024-03-22T05:27:40;33.30;;;21.40;;
3189;SDS011;1606;51.946;10.558;2024-03-22T05:30:07;35.90;;;20.67;;
3189;SDS011;1606;51.946;10.558;2024-03-22T05:32:36;38.53;;;23.00;;
3189;SDS011;1606;51.946;10.558;2024-03-22T05:35:03;34.77;;;21.93;;
3189;SDS011;1606;51.946;10.558;2024-03-22T05:37:30;35.60;;;22.90;;
3189;SDS011;1606;51.946;10.558;2024-03-22T05:39:58;37.03;;;23.60;;
3189;SDS011;1606;51.946;10.558;2024-03-22T05:42:24;36.57;;;22.93;;
3189;SDS011;1606;51.946;10.558;2024-03-22T05:44:51;40.57;;;24.40;;
3189;SDS011;1606;51.946;10.558;2024-03-22T05:47:18;36.00;;;22.57;;
3189;SDS011;1606;51.946;10.558;2024-03-22T05:49:47;38.90;;;23.30;;
3189;SDS011;1606;51.946;10.558;2024-03-22T05:52:13;34.47;;;21.03;;
3189;SDS011;1606;51.946;10.558;2024-03-22T05:54:40;40.10;;;24.53;;
3189;SDS011;1606;51.946;10.558;2024-03-22T05:57:06;34.00;;;22.40;;
3189;SDS011;1606;51.946;10.558;2024-03-22T05:59:34;35.77;;;23.67;;
3189;SDS011;1606;51.946;10.558;2024-03-22T06:02:00;39.53;;;24.83;;
3189;SDS011;1606;51.946;10.558;2024-03-22T06:04:27;35.23;;;22.63;;
3189;SDS011;1606;51.946;10.558;2024-03-22T06:06:54;34.77;;;22.63;;
3189;SDS011;1606;51.946;10.558;2024-03-22T06:09:24;35.80;;;22.70;;
3189;SDS011;1606;51.946;10.558;2024-03-22T06:12:00;38.53;;;24.83;;
3189;SDS011;1606;51.946;10.558;2024-03-22T06:14:27;33.20;;;20.80;;
3189;SDS011;1606;51.946;10.558;2024-03-22T06:16:53;38.13;;;24.93;;
3189;SDS011;1606;51.946;10.558;2024-03-22T06:19:20;34.77;;;21.63;;
3189;SDS011;1606;51.946;10.558;2024-03-22T06:21:46;32.87;;;22.13;;
3189;SDS011;1606;51.946;10.558;2024-03-22T06:24:14;32.63;;;21.50;;
3189;SDS011;1606;51.946;10.558;2024-03-22T06:26:40;34.20;;;21.23;;
3189;SDS011;1606;51.946;10.558;2024-03-22T06:29:07;28.03;;;20.50;;
3189;SDS011;1606;51.946;10.558;2024-03-22T06:31:33;35.33;;;20.87;;
3189;SDS011;1606;51.946;10.558;2024-03-22T06:34:00;35.13;;;24.00;;
3189;SDS011;1606;51.946;10.558;2024-03-22T06:36:27;32.87;;;20.97;;
3189;SDS011;1606;51.946;10.558;2024-03-22T06:38:55;32.33;;;21.83;;
3189;SDS011;1606;51.946;10.558;2024-03-22T06:41:22;31.40;;;20.60;;
3189;SDS011;1606;51.946;10.558;2024-03-22T06:43:49;28.73;;;18.87;;
3189;SDS011;1606;51.946;10.558;2024-03-22T06:46:15;28.10;;;18.47;;
3189;SDS011;1606;51.946;10.558;2024-03-22T06:48:42;35.20;;;19.03;;
3189;SDS011;1606;51.946;10.558;2024-03-22T06:51:08;25.70;;;17.43;;
3189;SDS011;1606;51.946;10.558;2024-03-22T06:53:35;29.70;;;19.77;;
3189;SDS011;1606;51.946;10.558;2024-03-22T06:56:01;28.80;;;17.47;;
3189;SDS011;1606;51.946;10.558;2024-03-22T06:58:29;31.43;;;19.60;;
3189;SDS011;1606;51.946;10.558;2024-03-22T07:00:56;27.93;;;18.00;;
3189;SDS011;1606;51.946;10.558;2024-03-22T07:03:22;29.40;;;18.53;;
3189;SDS011;1606;51.946;10.558;2024-03-22T07:05:48;25.53;;;18.33;;
3189;SDS011;1606;51.946;10.558;2024-03-22T07:08:14;34.30;;;18.27;;
3189;SDS011;1606;51.946;10.558;2024-03-22T07:10:41;27.70;;;17.80;;
3189;SDS011;1606;51.946;10.558;2024-03-22T07:13:07;27.80;;;18.40;;
3189;SDS011;1606;51.946;10.558;2024-03-22T07:15:36;28.70;;;18.80;;
3189;SDS011;1606;51.946;10.558;2024-03-22T07:18:02;29.33;;;19.93;;
3189;SDS011;1606;51.946;10.558;2024-03-22T07:20:31;36.57;;;20.63;;
3189;SDS011;1606;51.946;10.558;2024-03-22T07:22:57;25.07;;;15.90;;
3189;SDS011;1606;51.946;10.558;2024-03-22T07:25:24;26.50;;;16.03;;
3189;SDS011;1606;51.946;10.558;2024-03-22T07:27:50;23.40;;;16.20;;
3189;SDS011;1606;51.946;10.558;2024-03-22T07:30:17;22.60;;;13.83;;
3189;SDS011;1606;51.946;10.558;2024-03-22T07:32:44;22.80;;;14.83;;
3189;SDS011;1606;51.946;10.558;2024-03-22T07:35:12;22.13;;;13.33;;
3189;SDS011;1606;51.946;10.558;2024-03-22T07:37:38;30.37;;;19.97;;
3189;SDS011;1606;51.946;10.558;2024-03-22T07:40:06;26.80;;;17.57;;
3189;SDS011;1606;51.946;10.558;2024-03-22T07:42:32;29.10;;;18.40;;
3189;SDS011;1606;51.946;10.558;2024-03-22T07:44:59;28.70;;;19.60;;
3189;SDS011;1606;51.946;10.558;2024-03-22T07:47:25;18.20;;;12.70;;
3189;SDS011;1606;51.946;10.558;2024-03-22T07:49:53;20.67;;;13.47;;
3189;SDS011;1606;51.946;10.558;2024-03-22T07:52:19;21.73;;;11.90;;
3189;SDS011;1606;51.946;10.558;2024-03-22T07:54:46;20.10;;;10.70;;
3189;SDS011;1606;51.946;10.558;2024-03-22T07:57:12;20.93;;;10.90;;
3189;SDS011;1606;51.946;10.558;2024-03-22T07:59:39;17.03;;;9.83;;
3189;SDS011;1606;51.946;10.558;2024-03-22T08:02:05;16.77;;;11.27;;
3189;SDS011;1606;51.946;10.558;2024-03-22T08:04:32;19.83;;;11.10;;
3189;SDS011;1606;51.946;10.558;2024-03-22T08:06:59;18.53;;;10.03;;
3189;SDS011;1606;51.946;10.558;2024-03-22T08:09:26;20.30;;;11.57;;
3189;SDS011;1606;51.946;10.558;2024-03-22T08:11:52;16.30;;;10.60;;
3189;SDS011;1606;51.946;10.558;2024-03-22T08:14:19;20.63;;;9.87;;
3189;SDS011;1606;51.946;10.558;2024-03-22T08:16:45;17.23;;;10.30;;
3189;SDS011;1606;51.946;10.558;2024-03-22T08:19:12;14.37;;;8.80;;
3189;SDS011;1606;51.946;10.558;2024-03-22T08:21:38;15.17;;;9.50;;
3189;SDS011;1606;51.946;10.558;2024-03-22T08:24:06;18.17;;;10.80;;
3189;SDS011;1606;51.946;10.558;2024-03-22T08:26:32;18.40;;;10.00;;
3189;SDS011;1606;51.946;10.558;2024-03-22T08:28:59;17.03;;;9.90;;
3189;SDS011;1606;51.946;10.558;2024-03-22T08:31:25;17.70;;;10.17;;
3189;SDS011;1606;51.946;10.558;2024-03-22T08:33:53;19.00;;;10.63;;
3189;SDS011;1606;51.946;10.558;2024-03-22T08:36:21;16.37;;;9.43;;
3189;SDS011;1606;51.946;10.558;2024-03-22T08:38:48;16.90;;;9.50;;
3189;SDS011;1606;51.946;10.558;2024-03-22T08:41:16;17.33;;;9.87;;
3189;SDS011;1606;51.946;10.558;2024-03-22T08:43:43;18.63;;;9.50;;
3189;SDS011;1606;51.946;10.558;2024-03-22T08:46:09;17.00;;;10.37;;
3189;SDS011;1606;51.946;10.558;2024-03-22T08:48:36;14.50;;;8.33;;
3189;SDS011;1606;51.946;10.558;2024-03-22T08:51:03;14.13;;;8.27;;
3189;SDS011;1606;51.946;10.558;2024-03-22T08:53:30;14.40;;;8.90;;
3189;SDS011;1606;51.946;10.558;2024-03-22T08:55:56;15.50;;;7.67;;
3189;SDS011;1606;51.946;10.558;2024-03-22T08:58:27;14.07;;;8.50;;
3189;SDS011;1606;51.946;10.558;2024-03-22T09:00:53;12.70;;;7.77;;
3189;SDS011;1606;51.946;10.558;2024-03-22T09:03:20;13.30;;;8.10;;
3189;SDS011;1606;51.946;10.558;2024-03-22T09:05:46;12.93;;;7.30;;
3189;SDS011;1606;51.946;10.558;2024-03-22T09:08:13;15.20;;;7.83;;
3189;SDS011;1606;51.946;10.558;2024-03-22T09:10:39;15.53;;;8.77;;
3189;SDS011;1606;51.946;10.558;2024-03-22T09:13:06;16.07;;;8.17;;
3189;SDS011;1606;51.946;10.558;2024-03-22T09:15:34;13.83;;;8.33;;
3189;SDS011;1606;51.946;10.558;2024-03-22T09:18:01;15.23;;;6.93;;
3189;SDS011;1606;51.946;10.558;2024-03-22T09:20:27;19.20;;;8.97;;
3189;SDS011;1606;51.946;10.558;2024-03-22T09:22:54;13.57;;;8.00;;
3189;SDS011;1606;51.946;10.558;2024-03-22T09:25:20;15.33;;;8.33;;
3189;SDS011;1606;51.946;10.558;2024-03-22T09:27:47;14.60;;;7.73;;
3189;SDS011;1606;51.946;10.558;2024-03-22T09:30:13;16.13;;;7.43;;
3189;SDS011;1606;51.946;10.558;2024-03-22T09:32:42;14.03;;;8.77;;
3189;SDS011;1606;51.946;10.558;2024-03-22T09:35:08;13.70;;;7.93;;
3189;SDS011;1606;51.946;10.558;2024-03-22T09:37:37;13.30;;;7.43;;
3189;SDS011;1606;51.946;10.558;2024-03-22T09:40:03;12.87;;;7.60;;
3189;SDS011;1606;51.946;10.558;2024-03-22T09:42:33;13.03;;;6.57;;
3189;SDS011;1606;51.946;10.558;2024-03-22T09:45:09;14.10;;;7.67;;
3189;SDS011;1606;51.946;10.558;2024-03-22T09:48:05;15.00;;;8.70;;
3189;SDS011;1606;51.946;10.558;2024-03-22T09:50:32;17.20;;;10.37;;
3189;SDS011;1606;51.946;10.558;2024-03-22T09:52:59;17.03;;;10.93;;
3189;SDS011;1606;51.946;10.558;2024-03-22T09:55:25;17.60;;;10.23;;
3189;SDS011;1606;51.946;10.558;2024-03-22T09:57:53;17.70;;;10.17;;
3189;SDS011;1606;51.946;10.558;2024-03-22T10:00:20;17.70;;;11.33;;
3189;SDS011;1606;51.946;10.558;2024-03-22T10:02:47;17.30;;;10.30;;
3189;SDS011;1606;51.946;10.558;2024-03-22T10:05:16;15.77;;;9.63;;
3189;SDS011;1606;51.946;10.558;2024-03-22T10:07:43;12.63;;;7.57;;
3189;SDS011;1606;51.946;10.558;2024-03-22T10:10:09;13.70;;;8.20;;
3189;SDS011;1606;51.946;10.558;2024-03-22T10:12:37;11.67;;;7.03;;
3189;SDS011;1606;51.946;10.558;2024-03-22T10:15:04;18.80;;;7.90;;
3189;SDS011;1606;51.946;10.558;2024-03-22T10:17:34;11.80;;;6.57;;
3189;SDS011;1606;51.946;10.558;2024-03-22T10:20:00;11.27;;;6.00;;
3189;SDS011;1606;51.946;10.558;2024-03-22T10:22:29;13.40;;;7.17;;
3189;SDS011;1606;51.946;10.558;2024-03-22T10:24:55;13.17;;;7.33;;
3189;SDS011;1606;51.946;10.558;2024-03-22T10:27:26;13.23;;;7.23;;
3189;SDS011;1606;51.946;10.558;2024-03-22T10:29:52;14.87;;;7.80;;
3189;SDS011;1606;51.946;10.558;2024-03-22T10:32:19;14.40;;;9.00;;
3189;SDS011;1606;51.946;10.558;2024-03-22T10:34:46;15.20;;;9.23;;
3189;SDS011;1606;51.946;10.558;2024-03-22T10:37:15;13.63;;;9.43;;
3189;SDS011;1606;51.946;10.558;2024-03-22T10:39:43;15.90;;;8.63;;
3189;SDS011;1606;51.946;10.558;2024-03-22T10:42:11;18.20;;;9.67;;
3189;SDS011;1606;51.946;10.558;2024-03-22T10:44:37;15.00;;;9.20;;
3189;SDS011;1606;51.946;10.558;2024-03-22T10:47:04;14.30;;;9.20;;
3189;SDS011;1606;51.946;10.558;2024-03-22T10:49:36;15.57;;;9.10;;
3189;SDS011;1606;51.946;10.558;2024-03-22T10:52:03;14.00;;;9.30;;
3189;SDS011;1606;51.946;10.558;2024-03-22T10:54:32;17.83;;;10.17;;
3189;SDS011;1606;51.946;10.558;2024-03-22T10:57:03;20.67;;;10.70;;
3189;SDS011;1606;51.946;10.558;2024-03-22T10:59:33;21.07;;;10.50;;
3189;SDS011;1606;51.946;10.558;2024-03-22T11:02:02;18.33;;;10.47;;
3189;SDS011;1606;51.946;10.558;2024-03-22T11:04:29;14.23;;;9.67;;
3189;SDS011;1606;51.946;10.558;2024-03-22T11:06:57;16.33;;;10.30;;
3189;SDS011;1606;51.946;10.558;2024-03-22T11:09:23;17.80;;;10.17;;
3189;SDS011;1606;51.946;10.558;2024-03-22T11:11:52;18.40;;;10.10;;
3189;SDS011;1606;51.946;10.558;2024-03-22T11:14:20;14.07;;;9.60;;
3189;SDS011;1606;51.946;10.558;2024-03-22T11:16:48;18.63;;;11.67;;
3189;SDS011;1606;51.946;10.558;2024-03-22T11:19:14;20.03;;;12.60;;
3189;SDS011;1606;51.946;10.558;2024-03-22T11:21:42;18.03;;;11.20;;
3189;SDS011;1606;51.946;10.558;2024-03-22T11:24:07;16.60;;;10.37;;
3189;SDS011;1606;51.946;10.558;2024-03-22T11:26:36;19.07;;;11.90;;
3189;SDS011;1606;51.946;10.558;2024-03-22T11:29:02;19.20;;;11.43;;
3189;SDS011;1606;51.946;10.558;2024-03-22T11:31:30;21.20;;;11.60;;
3189;SDS011;1606;51.946;10.558;2024-03-22T11:33:56;13.80;;;8.67;;
3189;SDS011;1606;51.946;10.558;2024-03-22T11:36:23;16.30;;;10.90;;
3189;SDS011;1606;51.946;10.558;2024-03-22T11:38:49;16.33;;;10.90;;
3189;SDS011;1606;51.946;10.558;2024-03-22T11:41:19;15.83;;;10.10;;
3189;SDS011;1606;51.946;10.558;2024-03-22T11:43:47;19.77;;;11.97;;
3189;SDS011;1606;51.946;10.558;2024-03-22T11:46:15;16.90;;;11.10;;
3189;SDS011;1606;51.946;10.558;2024-03-22T11:48:43;20.57;;;14.20;;
3189;SDS011;1606;51.946;10.558;2024-03-22T11:51:10;20.90;;;13.97;;
3189;SDS011;1606;51.946;10.558;2024-03-22T11:53:36;20.43;;;13.67;;
3189;SDS011;1606;51.946;10.558;2024-03-22T11:56:04;19.80;;;13.97;;
3189;SDS011;1606;51.946;10.558;2024-03-22T11:58:30;21.17;;;15.27;;
3189;SDS011;1606;51.946;10.558;2024-03-22T12:00:57;21.80;;;15.80;;
3189;SDS011;1606;51.946;10.558;2024-03-22T12:03:23;22.27;;;13.43;;
3189;SDS011;1606;51.946;10.558;2024-03-22T12:05:52;19.40;;;13.30;;
3189;SDS011;1606;51.946;10.558;2024-03-22T12:08:19;20.90;;;12.90;;
3189;SDS011;1606;51.946;10.558;2024-03-22T12:10:46;20.17;;;14.10;;
3189;SDS011;1606;51.946;10.558;2024-03-22T12:13:12;21.10;;;14.20;;
3189;SDS011;1606;51.946;10.558;2024-03-22T12:15:39;21.10;;;14.87;;
3189;SDS011;1606;51.946;10.558;2024-03-22T12:18:05;20.17;;;15.07;;
3189;SDS011;1606;51.946;10.558;2024-03-22T12:20:32;21.83;;;14.37;;
3189;SDS011;1606;51.946;10.558;2024-03-22T12:22:59;22.93;;;15.00;;
3189;SDS011;1606;51.946;10.558;2024-03-22T12:25:26;22.43;;;14.80;;
3189;SDS011;1606;51.946;10.558;2024-03-22T12:27:52;22.40;;;15.20;;
3189;SDS011;1606;51.946;10.558;2024-03-22T12:30:19;24.53;;;15.60;;
3189;SDS011;1606;51.946;10.558;2024-03-22T12:32:45;21.77;;;15.00;;
3189;SDS011;1606;51.946;10.558;2024-03-22T12:35:12;23.50;;;14.70;;
3189;SDS011;1606;51.946;10.558;2024-03-22T12:37:38;21.37;;;14.03;;
3189;SDS011;1606;51.946;10.558;2024-03-22T12:40:08;23.80;;;13.70;;
3189;SDS011;1606;51.946;10.558;2024-03-22T12:42:35;22.60;;;14.57;;
3189;SDS011;1606;51.946;10.558;2024-03-22T12:45:02;20.73;;;15.23;;
3189;SDS011;1606;51.946;10.558;2024-03-22T12:47:28;24.00;;;14.70;;
3189;SDS011;1606;51.946;10.558;2024-03-22T12:49:55;23.30;;;15.03;;
3189;SDS011;1606;51.946;10.558;2024-03-22T12:52:21;23.87;;;15.70;;
3189;SDS011;1606;51.946;10.558;2024-03-22T12:54:48;24.87;;;15.30;;
3189;SDS011;1606;51.946;10.558;2024-03-22T12:57:15;21.60;;;15.37;;
3189;SDS011;1606;51.946;10.558;2024-03-22T12:59:43;20.60;;;14.87;;
3189;SDS011;1606;51.946;10.558;2024-03-22T13:02:10;21.50;;;15.07;;
3189;SDS011;1606;51.946;10.558;2024-03-22T13:04:37;23.50;;;15.00;;
3189;SDS011;1606;51.946;10.558;2024-03-22T13:07:03;20.70;;;13.83;;
3189;SDS011;1606;51.946;10.558;2024-03-22T13:09:30;19.70;;;14.53;;
3189;SDS011;1606;51.946;10.558;2024-03-22T13:11:56;23.63;;;14.20;;
3189;SDS011;1606;51.946;10.558;2024-03-22T13:14:24;26.00;;;14.50;;
3189;SDS011;1606;51.946;10.558;2024-03-22T13:16:50;18.93;;;13.57;;
3189;SDS011;1606;51.946;10.558;2024-03-22T13:19:17;19.90;;;14.43;;
3189;SDS011;1606;51.946;10.558;2024-03-22T13:21:44;21.00;;;13.77;;
3189;SDS011;1606;51.946;10.558;2024-03-22T13:24:13;20.83;;;14.73;;
3189;SDS011;1606;51.946;10.558;2024-03-22T13:26:39;23.07;;;14.83;;
3189;SDS011;1606;51.946;10.558;2024-03-22T13:29:06;20.00;;;15.43;;
3189;SDS011;1606;51.946;10.558;2024-03-22T13:31:34;22.97;;;13.70;;
3189;SDS011;1606;51.946;10.558;2024-03-22T13:34:01;25.60;;;16.30;;
3189;SDS011;1606;51.946;10.558;2024-03-22T13:36:27;21.47;;;15.03;;
3189;SDS011;1606;51.946;10.558;2024-03-22T13:38:57;22.97;;;14.93;;
3189;SDS011;1606;51.946;10.558;2024-03-22T13:41:23;25.70;;;18.13;;
3189;SDS011;1606;51.946;10.558;2024-03-22T13:43:51;25.43;;;17.30;;
3189;SDS011;1606;51.946;10.558;2024-03-22T13:46:17;22.90;;;15.47;;
3189;SDS011;1606;51.946;10.558;2024-03-22T13:48:46;21.07;;;14.53;;
3189;SDS011;1606;51.946;10.558;2024-03-22T13:51:13;23.13;;;14.97;;
3189;SDS011;1606;51.946;10.558;2024-03-22T13:53:40;21.97;;;15.60;;
3189;SDS011;1606;51.946;10.558;2024-03-22T13:56:06;23.17;;;14.67;;
3189;SDS011;1606;51.946;10.558;2024-03-22T13:58:32;22.20;;;15.53;;
3189;SDS011;1606;51.946;10.558;2024-03-22T14:00:59;20.53;;;16.43;;
3189;SDS011;1606;51.946;10.558;2024-03-22T14:03:28;18.23;;;14.27;;
3189;SDS011;1606;51.946;10.558;2024-03-22T14:05:55;20.63;;;15.20;;
3189;SDS011;1606;51.946;10.558;2024-03-22T14:08:22;21.30;;;13.20;;
3189;SDS011;1606;51.946;10.558;2024-03-22T14:10:48;20.70;;;13.60;;
3189;SDS011;1606;51.946;10.558;2024-03-22T14:13:15;19.77;;;13.70;;
3189;SDS011;1606;51.946;10.558;2024-03-22T14:15:42;21.17;;;13.53;;
3189;SDS011;1606;51.946;10.558;2024-03-22T14:18:09;20.50;;;14.53;;
3189;SDS011;1606;51.946;10.558;2024-03-22T14:20:35;20.40;;;14.17;;
3189;SDS011;1606;51.946;10.558;2024-03-22T14:23:03;22.13;;;12.70;;
3189;SDS011;1606;51.946;10.558;2024-03-22T14:25:35;21.53;;;14.20;;
3189;SDS011;1606;51.946;10.558;2024-03-22T14:28:02;19.80;;;12.90;;
3189;SDS011;1606;51.946;10.558;2024-03-22T14:30:28;21.63;;;14.10;;
3189;SDS011;1606;51.946;10.558;2024-03-22T14:32:55;17.60;;;13.27;;
3189;SDS011;1606;51.946;10.558;2024-03-22T14:35:21;19.00;;;14.13;;
3189;SDS011;1606;51.946;10.558;2024-03-22T14:37:48;19.57;;;13.40;;